Time;durP1;ratioP1;P1;durP2;ratioP2;P2;SDS_P1;SDS_P2;PMS_P1;PMS_P2;Temp;Humidity;BMP_temperature;BMP_pressure;BME280_temperature;BME280_humidity;BME280_pressure;Samples;Min_cycle;Max_cycle;Signal;HPM_P1;HPM_P2
2023/08/08 00:02:18;;;;;;;1.20;1.10;;;16.10;99.90;;;;;;5012542;28;20183;-72
2023/08/08 00:04:43;;;;;;;1.40;1.08;;;16.10;99.90;;;;;;5007961;28;20199;-73
2023/08/08 00:07:12;;;;;;;2.85;1.42;;;16.00;99.90;;;;;;5008083;28;20183;-74
2023/08/08 00:09:37;;;;;;;2.30;1.40;;;16.00;99.90;;;;;;5013842;28;20217;-74
2023/08/08 00:12:03;;;;;;;1.77;1.20;;;16.00;99.90;;;;;;5012201;28;20485;-73
2023/08/08 00:14:29;;;;;;;3.15;1.30;;;16.00;99.90;;;;;;5004435;28;20174;-71
2023/08/08 00:16:55;;;;;;;1.67;1.23;;;16.00;99.90;;;;;;5011069;28;20265;-73
2023/08/08 00:19:21;;;;;;;2.40;1.42;;;16.00;99.90;;;;;;5014334;28;20202;-73
2023/08/08 00:21:46;;;;;;;1.88;1.20;;;16.00;99.90;;;;;;5009343;28;20186;-75
2023/08/08 00:24:12;;;;;;;1.20;1.05;;;16.00;99.90;;;;;;5016212;28;20174;-73
2023/08/08 00:26:40;;;;;;;1.30;1.17;;;16.00;99.90;;;;;;5007967;28;20213;-73
2023/08/08 00:29:07;;;;;;;2.30;1.40;;;16.00;99.90;;;;;;5014927;28;20189;-74
2023/08/08 00:31:33;;;;;;;2.78;1.45;;;16.00;99.90;;;;;;5013997;28;20174;-70
2023/08/08 00:34:03;;;;;;;2.33;1.15;;;16.00;99.90;;;;;;5012892;28;20189;-72
2023/08/08 00:36:29;;;;;;;1.67;1.05;;;16.00;99.90;;;;;;5014595;28;20209;-71
2023/08/08 00:38:57;;;;;;;2.25;1.10;;;16.00;99.90;;;;;;5009297;28;20175;-70
2023/08/08 00:41:22;;;;;;;3.55;1.50;;;16.00;99.90;;;;;;5014281;28;20209;-71
2023/08/08 00:43:50;;;;;;;1.30;1.13;;;15.90;99.90;;;;;;5015083;28;20171;-70
2023/08/08 00:46:24;;;;;;;1.30;1.20;;;15.90;99.90;;;;;;5015454;28;20174;-70
2023/08/08 00:48:52;;;;;;;1.70;1.10;;;15.90;99.90;;;;;;5245190;23;20257;-64
2023/08/08 00:51:21;;;;;;;1.30;1.20;;;15.90;99.90;;;;;;5015314;28;20181;-64
2023/08/08 00:53:47;;;;;;;3.33;1.63;;;15.90;99.90;;;;;;5014591;28;20284;-64
2023/08/08 00:56:14;;;;;;;2.03;1.40;;;15.90;99.90;;;;;;5015187;28;20194;-65
2023/08/08 00:58:46;;;;;;;1.95;1.30;;;15.80;99.90;;;;;;5012107;28;20224;-64
2023/08/08 01:01:12;;;;;;;1.48;1.33;;;15.80;99.90;;;;;;5014915;28;20174;-65
2023/08/08 01:03:42;;;;;;;1.23;1.13;;;15.80;99.90;;;;;;5025823;28;20203;-65
2023/08/08 01:06:20;;;;;;;1.50;1.10;;;15.80;99.90;;;;;;5014660;28;20182;-65
2023/08/08 01:08:55;;;;;;;1.17;1.08;;;15.80;99.90;;;;;;5014235;28;20228;-65
2023/08/08 01:11:22;;;;;;;3.83;1.30;;;15.80;99.90;;;;;;5015077;28;20198;-65
2023/08/08 01:13:53;;;;;;;1.80;1.15;;;15.80;99.90;;;;;;5014416;28;20463;-64
2023/08/08 01:16:20;;;;;;;1.20;1.05;;;15.70;99.90;;;;;;5009345;28;20198;-65
2023/08/08 01:18:48;;;;;;;1.83;1.30;;;15.70;99.90;;;;;;5012056;28;20194;-65
2023/08/08 01:21:16;;;;;;;1.73;1.38;;;15.70;99.90;;;;;;5008932;28;20245;-65
2023/08/08 01:23:55;;;;;;;4.10;1.60;;;15.70;99.90;;;;;;5010638;28;20192;-65
2023/08/08 01:26:22;;;;;;;2.00;1.40;;;15.60;99.90;;;;;;5013041;28;20288;-65
2023/08/08 01:28:51;;;;;;;2.30;1.15;;;15.60;99.90;;;;;;5013675;28;20175;-63
2023/08/08 01:31:17;;;;;;;1.50;1.38;;;15.60;99.90;;;;;;5014114;28;20186;-65
2023/08/08 01:33:43;;;;;;;1.98;1.40;;;15.60;99.90;;;;;;5013947;28;20202;-65
2023/08/08 01:36:24;;;;;;;2.33;1.50;;;15.60;99.90;;;;;;5013123;28;20194;-64
2023/08/08 01:38:56;;;;;;;2.30;1.25;;;15.50;99.90;;;;;;5014562;28;20187;-65
2023/08/08 01:41:27;;;;;;;1.63;1.40;;;15.50;99.90;;;;;;5010311;28;20237;-64
2023/08/08 01:43:57;;;;;;;1.83;1.52;;;15.50;99.90;;;;;;5030203;28;20186;-65
2023/08/08 01:46:26;;;;;;;2.35;1.30;;;15.50;99.90;;;;;;5010447;28;20198;-64
2023/08/08 01:48:52;;;;;;;1.52;1.42;;;15.50;99.90;;;;;;5013628;28;20218;-65
2023/08/08 01:51:20;;;;;;;2.13;1.30;;;15.40;99.90;;;;;;5013929;28;20175;-63
2023/08/08 01:53:45;;;;;;;2.22;1.50;;;15.40;99.90;;;;;;5013666;28;20183;-65
2023/08/08 01:56:11;;;;;;;1.65;1.30;;;15.40;99.90;;;;;;5012289;28;20210;-66
2023/08/08 01:58:41;;;;;;;1.50;1.40;;;15.30;99.90;;;;;;5013687;28;20308;-67
2023/08/08 02:01:07;;;;;;;2.35;1.30;;;15.30;99.90;;;;;;5008748;28;20186;-66
2023/08/08 02:03:32;;;;;;;1.85;1.40;;;15.30;99.90;;;;;;5018431;28;20198;-63
2023/08/08 02:06:00;;;;;;;1.67;1.40;;;15.30;99.90;;;;;;5027379;28;20186;-63
2023/08/08 02:08:28;;;;;;;2.47;1.38;;;15.30;99.90;;;;;;5009263;28;20270;-64
2023/08/08 02:10:54;;;;;;;1.55;1.30;;;15.20;99.90;;;;;;5013555;28;20522;-64
2023/08/08 02:13:19;;;;;;;2.20;1.63;;;15.20;99.90;;;;;;5013972;28;20198;-65
2023/08/08 02:15:45;;;;;;;1.40;1.30;;;15.20;99.90;;;;;;5013673;28;20262;-64
2023/08/08 02:18:13;;;;;;;2.03;1.50;;;15.20;99.90;;;;;;5013364;28;20179;-64
2023/08/08 02:20:43;;;;;;;2.28;1.60;;;15.20;99.90;;;;;;5012735;28;20183;-65
2023/08/08 02:23:09;;;;;;;2.90;1.65;;;15.20;99.90;;;;;;5012950;28;20171;-64
2023/08/08 02:25:37;;;;;;;3.42;1.50;;;15.20;99.90;;;;;;5013129;28;20232;-65
2023/08/08 02:28:07;;;;;;;2.00;1.67;;;15.10;99.90;;;;;;5013427;28;20171;-64
2023/08/08 02:30:33;;;;;;;1.90;1.60;;;15.10;99.90;;;;;;5010534;28;20174;-64
2023/08/08 02:33:01;;;;;;;1.80;1.40;;;15.10;99.90;;;;;;5007904;28;20181;-65
2023/08/08 02:35:29;;;;;;;1.90;1.23;;;15.00;99.90;;;;;;5017773;28;20171;-64
2023/08/08 02:37:58;;;;;;;2.47;1.52;;;15.00;99.90;;;;;;5017052;28;20201;-65
2023/08/08 02:40:24;;;;;;;1.60;1.40;;;15.00;99.90;;;;;;5004056;28;20183;-66
2023/08/08 02:42:52;;;;;;;1.85;1.45;;;15.00;99.90;;;;;;5009615;28;20186;-65
2023/08/08 02:45:20;;;;;;;2.03;1.50;;;15.00;99.90;;;;;;5017347;28;20189;-65
2023/08/08 02:47:48;;;;;;;2.10;1.35;;;15.00;99.90;;;;;;5006001;28;20186;-65
2023/08/08 02:50:15;;;;;;;2.03;1.50;;;15.00;99.90;;;;;;5016402;28;20210;-66
2023/08/08 02:52:41;;;;;;;3.25;1.60;;;15.00;99.90;;;;;;5016526;28;20179;-65
2023/08/08 02:55:07;;;;;;;3.35;1.70;;;15.00;99.90;;;;;;5017007;28;20175;-65
2023/08/08 02:57:33;;;;;;;1.50;1.30;;;14.90;99.90;;;;;;5001668;28;20242;-66
2023/08/08 03:00:01;;;;;;;2.00;1.38;;;14.90;99.90;;;;;;5016334;28;20174;-66
2023/08/08 03:02:28;;;;;;;2.00;1.42;;;15.00;99.90;;;;;;5016780;28;20175;-66
2023/08/08 03:04:56;;;;;;;1.92;1.40;;;14.90;99.90;;;;;;5016711;28;20202;-65
2023/08/08 03:07:22;;;;;;;2.15;1.70;;;15.00;99.90;;;;;;5014922;28;20242;-66
2023/08/08 03:09:47;;;;;;;6.43;1.85;;;15.00;99.90;;;;;;5014350;28;20217;-65
2023/08/08 03:12:13;;;;;;;2.55;1.63;;;15.00;99.90;;;;;;5014383;28;20190;-66
2023/08/08 03:14:39;;;;;;;1.88;1.27;;;15.00;99.90;;;;;;5010913;28;20205;-65
2023/08/08 03:17:05;;;;;;;3.20;1.40;;;15.00;99.90;;;;;;5016191;28;20241;-66
2023/08/08 03:19:32;;;;;;;2.13;1.30;;;15.00;99.90;;;;;;5016348;28;20183;-65
2023/08/08 03:21:58;;;;;;;2.47;1.38;;;15.00;99.90;;;;;;5014938;28;20178;-64
2023/08/08 03:24:24;;;;;;;2.65;1.33;;;15.00;99.90;;;;;;5016696;28;20266;-64
2023/08/08 03:26:49;;;;;;;3.20;1.40;;;15.00;99.90;;;;;;5000506;28;20187;-65
2023/08/08 03:29:15;;;;;;;2.00;1.27;;;15.00;99.90;;;;;;5015225;28;20658;-66
2023/08/08 03:31:42;;;;;;;4.00;1.40;;;15.10;99.90;;;;;;5003842;28;20183;-65
2023/08/08 03:34:08;;;;;;;2.97;1.52;;;15.00;99.90;;;;;;5015341;28;20214;-66
2023/08/08 03:36:34;;;;;;;1.75;1.30;;;15.10;99.90;;;;;;5013626;28;20334;-65
2023/08/08 03:38:59;;;;;;;2.13;1.30;;;15.00;99.90;;;;;;4998240;28;20191;-66
2023/08/08 03:41:27;;;;;;;3.33;2.20;;;15.10;99.90;;;;;;5008741;28;20183;-66
2023/08/08 03:43:53;;;;;;;1.88;1.35;;;15.10;99.90;;;;;;5016321;28;20179;-65
2023/08/08 03:46:20;;;;;;;3.42;1.65;;;15.10;99.90;;;;;;5015667;28;20179;-65
2023/08/08 03:48:48;;;;;;;2.78;1.30;;;15.10;99.90;;;;;;5015088;28;20194;-65
2023/08/08 03:51:16;;;;;;;2.58;1.30;;;14.90;99.90;;;;;;5004127;28;20864;-66
2023/08/08 03:53:42;;;;;;;1.65;1.15;;;15.00;99.90;;;;;;5014846;28;20378;-66
2023/08/08 03:56:10;;;;;;;2.60;1.30;;;15.00;99.90;;;;;;5014921;28;20186;-66
2023/08/08 03:58:37;;;;;;;1.65;1.20;;;14.90;99.90;;;;;;5031776;28;20217;-65
2023/08/08 04:01:08;;;;;;;2.60;1.25;;;15.00;99.90;;;;;;5016178;28;20205;-65
2023/08/08 04:03:37;;;;;;;2.17;1.30;;;15.00;99.90;;;;;;5015796;28;20199;-66
2023/08/08 04:06:07;;;;;;;2.28;1.50;;;15.00;99.90;;;;;;5015539;28;20183;-65
2023/08/08 04:08:32;;;;;;;4.15;1.42;;;15.00;99.90;;;;;;5015660;28;20206;-65
2023/08/08 04:10:58;;;;;;;1.67;1.10;;;14.90;99.90;;;;;;5010800;28;20190;-66
2023/08/08 04:13:26;;;;;;;2.25;1.40;;;14.90;99.90;;;;;;5000057;28;20187;-66
2023/08/08 04:15:56;;;;;;;2.47;1.38;;;14.90;99.90;;;;;;4999899;28;20210;-67
2023/08/08 04:18:22;;;;;;;1.83;1.13;;;14.90;99.90;;;;;;5013271;28;20183;-67
2023/08/08 04:20:48;;;;;;;1.75;1.10;;;14.90;99.90;;;;;;5014113;28;20240;-66
2023/08/08 04:23:13;;;;;;;2.45;1.50;;;14.90;99.90;;;;;;4996256;28;20203;-67
2023/08/08 04:25:39;;;;;;;2.28;1.27;;;14.90;99.90;;;;;;5015805;28;20191;-67
2023/08/08 04:28:05;;;;;;;2.30;1.30;;;14.90;99.90;;;;;;5012664;28;20179;-67
2023/08/08 04:30:30;;;;;;;2.08;1.25;;;14.90;99.90;;;;;;5015353;28;20183;-67
2023/08/08 04:32:58;;;;;;;2.38;1.30;;;14.90;99.90;;;;;;5014777;28;20194;-66
2023/08/08 04:35:24;;;;;;;1.67;1.15;;;14.90;99.90;;;;;;5008131;28;20179;-67
2023/08/08 04:37:52;;;;;;;2.70;1.20;;;14.90;99.90;;;;;;5011434;28;20195;-68
2023/08/08 04:40:18;;;;;;;2.38;1.25;;;15.00;99.90;;;;;;4996148;28;20258;-67
2023/08/08 04:42:43;;;;;;;2.95;1.27;;;14.90;99.90;;;;;;5015301;28;20285;-67
2023/08/08 04:45:09;;;;;;;2.35;1.27;;;15.00;99.90;;;;;;5015205;28;20209;-67
2023/08/08 04:47:35;;;;;;;2.20;1.10;;;14.90;99.90;;;;;;5012116;28;20199;-67
2023/08/08 04:50:06;;;;;;;2.05;1.60;;;14.90;99.90;;;;;;5004609;28;20206;-67
2023/08/08 04:52:31;;;;;;;1.98;1.40;;;15.00;99.90;;;;;;5022490;28;20179;-67
2023/08/08 04:54:57;;;;;;;1.35;1.20;;;15.00;99.90;;;;;;4997692;28;20186;-68
2023/08/08 04:57:25;;;;;;;1.60;1.17;;;15.00;99.90;;;;;;5012546;28;20202;-68
2023/08/08 04:59:52;;;;;;;1.60;1.25;;;15.00;99.90;;;;;;5014657;28;20187;-67
2023/08/08 05:02:18;;;;;;;2.38;1.20;;;15.00;99.90;;;;;;5013950;28;20182;-68
2023/08/08 05:04:46;;;;;;;1.73;1.27;;;15.00;99.90;;;;;;5014221;28;20179;-65
2023/08/08 05:07:14;;;;;;;1.50;1.23;;;15.10;99.90;;;;;;5014407;28;20175;-65
2023/08/08 05:09:40;;;;;;;2.40;1.10;;;15.10;99.90;;;;;;5011648;28;20226;-65
2023/08/08 05:12:08;;;;;;;1.63;1.10;;;15.10;99.90;;;;;;5003017;28;20224;-65
2023/08/08 05:14:36;;;;;;;2.40;1.20;;;15.10;99.90;;;;;;5011325;28;20191;-64
2023/08/08 05:17:05;;;;;;;1.92;1.10;;;15.10;99.90;;;;;;5027491;28;20198;-64
2023/08/08 05:19:30;;;;;;;1.35;1.10;;;15.10;99.90;;;;;;5014456;28;20229;-64
2023/08/08 05:21:58;;;;;;;1.67;1.13;;;15.10;99.90;;;;;;5014792;28;20266;-64
2023/08/08 05:24:26;;;;;;;3.10;1.30;;;15.10;99.90;;;;;;5014195;28;20194;-65
2023/08/08 05:26:53;;;;;;;2.90;1.25;;;15.20;99.90;;;;;;5014097;28;20178;-65
2023/08/08 05:29:19;;;;;;;2.47;1.45;;;15.20;99.90;;;;;;5012290;28;20209;-65
2023/08/08 05:31:48;;;;;;;2.65;1.30;;;15.20;99.90;;;;;;5014454;28;20241;-65
2023/08/08 05:34:14;;;;;;;2.97;1.25;;;15.20;99.90;;;;;;5014364;28;20182;-64
2023/08/08 05:36:44;;;;;;;2.33;1.30;;;15.20;99.90;;;;;;5014476;28;20212;-64
2023/08/08 05:39:12;;;;;;;2.08;1.08;;;15.20;99.90;;;;;;5014211;28;20195;-65
2023/08/08 05:41:38;;;;;;;2.70;1.52;;;15.20;99.90;;;;;;5014227;28;20266;-66
2023/08/08 05:44:03;;;;;;;3.40;1.50;;;15.30;99.90;;;;;;5010805;28;20409;-66
2023/08/08 05:46:29;;;;;;;2.33;1.35;;;15.30;99.90;;;;;;5029231;28;20201;-65
2023/08/08 05:48:57;;;;;;;2.20;1.40;;;15.30;99.90;;;;;;5013838;28;20209;-64
2023/08/08 05:51:22;;;;;;;2.17;1.45;;;15.40;99.90;;;;;;5012681;28;20183;-65
2023/08/08 05:53:48;;;;;;;2.55;1.30;;;15.40;99.90;;;;;;5012324;28;20236;-64
2023/08/08 05:56:14;;;;;;;2.33;1.70;;;15.50;99.90;;;;;;5011434;28;20201;-65
2023/08/08 05:58:39;;;;;;;1.95;1.60;;;15.50;99.90;;;;;;5013711;28;20198;-64
2023/08/08 06:01:09;;;;;;;3.03;1.60;;;15.60;99.90;;;;;;5014560;28;20530;-65
2023/08/08 06:03:37;;;;;;;2.88;1.60;;;15.60;99.90;;;;;;5010375;28;20174;-65
2023/08/08 06:06:03;;;;;;;3.40;1.83;;;15.60;99.90;;;;;;5017502;28;20325;-65
2023/08/08 06:08:29;;;;;;;3.08;1.65;;;15.70;99.90;;;;;;5029716;28;20171;-64
2023/08/08 06:10:54;;;;;;;2.38;1.52;;;15.70;99.90;;;;;;5010339;28;20182;-64
2023/08/08 06:13:20;;;;;;;2.08;1.45;;;15.70;99.90;;;;;;5017747;28;20202;-64
2023/08/08 06:15:46;;;;;;;3.58;1.50;;;15.80;99.90;;;;;;5015519;28;20186;-65
2023/08/08 06:18:15;;;;;;;3.78;1.70;;;15.80;99.90;;;;;;5017537;28;20185;-65
2023/08/08 06:20:41;;;;;;;3.75;1.92;;;15.90;99.90;;;;;;5017650;28;20174;-64
2023/08/08 06:23:07;;;;;;;2.80;1.70;;;16.00;99.90;;;;;;5016893;28;20175;-64
2023/08/08 06:25:38;;;;;;;2.70;1.55;;;16.00;99.90;;;;;;5017865;28;20178;-65
2023/08/08 06:28:09;;;;;;;2.85;1.95;;;16.00;99.90;;;;;;5017905;28;20183;-64
2023/08/08 06:30:38;;;;;;;5.05;1.80;;;16.10;99.90;;;;;;5034174;28;20185;-65
2023/08/08 06:33:03;;;;;;;2.70;1.85;;;16.20;99.90;;;;;;5016277;28;20257;-64
2023/08/08 06:35:31;;;;;;;5.63;2.55;;;16.20;99.90;;;;;;5017656;28;20171;-64
2023/08/08 06:37:57;;;;;;;4.32;2.33;;;16.20;99.90;;;;;;5010389;28;20217;-65
2023/08/08 06:40:23;;;;;;;4.95;2.13;;;16.30;99.90;;;;;;5017318;28;20226;-65
2023/08/08 06:42:51;;;;;;;5.82;2.03;;;16.40;99.90;;;;;;5017180;28;20185;-65
2023/08/08 06:45:17;;;;;;;6.40;2.45;;;16.40;99.90;;;;;;5017370;28;20187;-64
2023/08/08 06:47:42;;;;;;;4.70;2.30;;;16.50;99.90;;;;;;5044513;23;20287;-64
2023/08/08 06:50:09;;;;;;;5.50;2.13;;;16.60;99.90;;;;;;4997546;28;20199;-65
2023/08/08 06:52:37;;;;;;;4.07;2.35;;;16.60;99.90;;;;;;4993790;28;20246;-65
2023/08/08 06:55:03;;;;;;;5.85;2.53;;;16.70;99.90;;;;;;4997026;28;20282;-65
2023/08/08 06:57:32;;;;;;;5.78;2.40;;;16.80;99.90;;;;;;4996799;28;20222;-65
2023/08/08 06:59:58;;;;;;;3.40;2.10;;;16.80;99.90;;;;;;4994868;28;20269;-65
2023/08/08 07:02:26;;;;;;;3.88;2.13;;;16.90;99.90;;;;;;4997765;28;20332;-64
2023/08/08 07:04:56;;;;;;;4.25;2.30;;;17.00;99.90;;;;;;4997381;28;20186;-65
2023/08/08 07:07:27;;;;;;;3.88;2.35;;;17.00;99.90;;;;;;4997615;28;20179;-65
2023/08/08 07:09:55;;;;;;;3.67;1.90;;;17.10;99.90;;;;;;4996136;28;20183;-65
2023/08/08 07:12:21;;;;;;;3.20;1.92;;;17.20;99.90;;;;;;4996535;28;20369;-65
2023/08/08 07:14:47;;;;;;;4.97;2.00;;;17.20;99.90;;;;;;4997195;28;20226;-65
2023/08/08 07:17:12;;;;;;;3.92;2.13;;;17.30;99.90;;;;;;4993791;28;20243;-65
2023/08/08 07:19:38;;;;;;;3.15;1.90;;;17.40;99.90;;;;;;4991303;28;20171;-66
2023/08/08 07:22:05;;;;;;;3.05;2.05;;;17.40;99.90;;;;;;4997148;28;20199;-65
2023/08/08 07:24:31;;;;;;;4.53;2.50;;;17.50;99.90;;;;;;4997028;28;20185;-65
2023/08/08 07:26:58;;;;;;;4.28;2.10;;;17.60;99.90;;;;;;4996721;28;20267;-65
2023/08/08 07:29:25;;;;;;;3.45;1.70;;;17.60;99.90;;;;;;4996712;28;20199;-65
2023/08/08 07:31:55;;;;;;;2.25;1.80;;;17.60;99.90;;;;;;4996582;28;20195;-65
2023/08/08 07:34:20;;;;;;;3.47;1.90;;;17.70;99.90;;;;;;4996105;28;20183;-65
2023/08/08 07:36:47;;;;;;;3.25;1.90;;;17.80;99.90;;;;;;4991432;28;20226;-66
2023/08/08 07:39:15;;;;;;;4.93;1.80;;;17.80;99.90;;;;;;4977757;28;20218;-66
2023/08/08 07:41:41;;;;;;;2.38;1.50;;;17.90;99.90;;;;;;4987034;28;20179;-66
2023/08/08 07:44:06;;;;;;;3.33;1.90;;;18.00;99.90;;;;;;4997016;28;20496;-66
2023/08/08 07:46:34;;;;;;;3.28;1.65;;;18.10;99.90;;;;;;4996599;28;20468;-66
2023/08/08 07:49:03;;;;;;;3.58;1.70;;;18.20;99.90;;;;;;4996352;28;20341;-66
2023/08/08 07:51:29;;;;;;;4.07;1.88;;;18.20;99.90;;;;;;4995016;28;20176;-65
2023/08/08 07:53:54;;;;;;;3.47;1.65;;;18.30;99.90;;;;;;4996017;28;20186;-66
2023/08/08 07:56:20;;;;;;;2.13;1.50;;;18.40;99.90;;;;;;4993339;28;20215;-64
2023/08/08 07:58:46;;;;;;;2.75;1.40;;;18.50;99.90;;;;;;4992386;28;20168;-65
2023/08/08 08:01:13;;;;;;;2.03;1.50;;;18.60;99.90;;;;;;4999382;28;20237;-64
2023/08/08 08:03:39;;;;;;;2.85;1.40;;;18.70;99.90;;;;;;4997065;28;20199;-64
2023/08/08 08:06:07;;;;;;;2.28;1.35;;;18.80;99.90;;;;;;4992881;28;20219;-64
2023/08/08 08:08:32;;;;;;;2.33;1.52;;;18.90;99.90;;;;;;4986914;28;20179;-65
2023/08/08 08:11:01;;;;;;;5.18;1.65;;;18.90;99.90;;;;;;4996276;28;20203;-65
2023/08/08 08:13:26;;;;;;;12.27;4.63;;;18.90;99.90;;;;;;4994838;28;20196;-66
2023/08/08 08:15:54;;;;;;;5.75;2.50;;;18.90;99.90;;;;;;4992503;28;20206;-65
2023/08/08 08:18:22;;;;;;;2.78;1.85;;;18.90;99.90;;;;;;4984496;28;20227;-65
2023/08/08 08:20:48;;;;;;;3.25;1.80;;;18.90;99.90;;;;;;4993494;28;20187;-65
2023/08/08 08:23:17;;;;;;;2.40;1.63;;;18.90;99.90;;;;;;4995911;28;20206;-65
2023/08/08 08:25:45;;;;;;;3.20;1.80;;;18.90;99.90;;;;;;4996293;28;20175;-65
2023/08/08 08:28:10;;;;;;;2.38;1.77;;;19.00;99.90;;;;;;4995433;28;20182;-65
2023/08/08 08:30:36;;;;;;;3.42;1.90;;;19.00;99.90;;;;;;4994520;28;20200;-65
2023/08/08 08:33:04;;;;;;;2.90;1.80;;;19.10;99.90;;;;;;4996345;28;20181;-65
2023/08/08 08:35:29;;;;;;;3.47;1.85;;;19.10;99.90;;;;;;4995558;28;20171;-65
2023/08/08 08:37:55;;;;;;;6.13;2.00;;;19.20;99.90;;;;;;5001541;28;20211;-66
2023/08/08 08:40:21;;;;;;;2.80;1.73;;;19.30;99.90;;;;;;4976501;28;20234;-66
2023/08/08 08:42:48;;;;;;;3.25;2.20;;;19.30;99.90;;;;;;5004222;28;20278;-65
2023/08/08 08:45:16;;;;;;;4.63;2.25;;;19.40;99.90;;;;;;5007914;28;20195;-64
2023/08/08 08:47:47;;;;;;;3.05;2.13;;;19.40;99.90;;;;;;4995583;28;20258;-65
2023/08/08 08:50:18;;;;;;;4.07;2.25;;;19.50;99.90;;;;;;4977039;28;20188;-66
2023/08/08 08:52:44;;;;;;;4.85;2.50;;;19.50;99.90;;;;;;4987655;28;20210;-66
2023/08/08 08:55:12;;;;;;;2.50;1.98;;;19.60;99.90;;;;;;4995522;28;20241;-66
2023/08/08 08:57:41;;;;;;;4.65;2.20;;;19.60;99.90;;;;;;4995628;28;20219;-70
2023/08/08 09:00:07;;;;;;;5.28;2.20;;;19.60;99.90;;;;;;4995152;28;20229;-72
2023/08/08 09:02:36;;;;;;;3.63;2.10;;;19.70;99.90;;;;;;4995458;28;20171;-73
2023/08/08 09:05:03;;;;;;;3.45;2.38;;;19.70;99.90;;;;;;4994974;28;20361;-73
2023/08/08 09:07:31;;;;;;;3.45;1.75;;;19.80;99.90;;;;;;4995123;28;20217;-74
2023/08/08 09:09:57;;;;;;;3.92;2.00;;;19.90;99.90;;;;;;4995010;28;20179;-73
2023/08/08 09:12:24;;;;;;;3.90;2.13;;;20.00;99.90;;;;;;4995156;28;20221;-73
2023/08/08 09:15:00;;;;;;;3.47;1.80;;;20.10;99.90;;;;;;4994995;28;20326;-73
2023/08/08 09:17:26;;;;;;;3.97;1.80;;;20.20;99.90;;;;;;4994315;28;20249;-73
2023/08/08 09:19:58;;;;;;;2.88;1.80;;;20.30;99.90;;;;;;4992951;28;20209;-73
2023/08/08 09:22:24;;;;;;;3.00;1.63;;;20.40;99.90;;;;;;4980338;28;20189;-70
2023/08/08 09:24:52;;;;;;;4.05;1.60;;;20.50;99.90;;;;;;4994396;28;20274;-73
2023/08/08 09:27:23;;;;;;;3.85;1.80;;;20.60;99.90;;;;;;4994361;28;20199;-74
2023/08/08 09:29:51;;;;;;;4.30;1.92;;;20.70;99.90;;;;;;4994604;28;20230;-74
2023/08/08 09:32:20;;;;;;;3.75;1.90;;;20.80;99.90;;;;;;4993988;28;20243;-74
2023/08/08 09:34:46;;;;;;;2.88;1.85;;;20.80;99.90;;;;;;4994136;28;20175;-72
2023/08/08 09:37:14;;;;;;;2.40;1.65;;;20.90;99.90;;;;;;4994416;28;20261;-72
2023/08/08 09:39:40;;;;;;;4.28;1.58;;;20.90;99.90;;;;;;4993775;28;20195;-74
2023/08/08 09:42:11;;;;;;;5.18;1.55;;;21.00;99.90;;;;;;4986252;28;20183;-74
2023/08/08 09:44:39;;;;;;;3.85;1.40;;;21.00;99.90;;;;;;4987414;28;20173;-76
2023/08/08 09:47:07;;;;;;;3.45;1.48;;;21.00;99.90;;;;;;4994673;28;20199;-73
2023/08/08 09:49:36;;;;;;;2.72;1.60;;;21.00;99.90;;;;;;4994280;28;20187;-71
2023/08/08 09:52:02;;;;;;;2.28;1.42;;;21.00;99.90;;;;;;4994168;28;20190;-75
2023/08/08 09:54:28;;;;;;;3.38;1.58;;;21.00;99.90;;;;;;4982685;28;20214;-74
2023/08/08 09:56:57;;;;;;;2.38;1.23;;;21.00;99.90;;;;;;4994179;28;20267;-73
2023/08/08 09:59:26;;;;;;;3.20;1.42;;;21.00;99.90;;;;;;4984208;28;20277;-72
2023/08/08 10:01:52;;;;;;;3.15;1.70;;;21.00;99.90;;;;;;4992402;28;20356;-75
2023/08/08 10:04:18;;;;;;;3.38;1.40;;;21.00;99.90;;;;;;5012715;28;20179;-74
2023/08/08 10:06:44;;;;;;;4.50;1.70;;;21.00;99.90;;;;;;4997231;28;20190;-73
2023/08/08 10:09:10;;;;;;;2.78;1.50;;;21.00;99.90;;;;;;4994086;28;20171;-75
2023/08/08 10:11:36;;;;;;;3.53;1.50;;;21.00;99.90;;;;;;4994534;28;20175;-74
2023/08/08 10:14:05;;;;;;;3.67;1.55;;;21.00;99.90;;;;;;4993879;28;20183;-75
2023/08/08 10:16:34;;;;;;;2.17;1.33;;;21.00;99.90;;;;;;4994013;28;20275;-77
2023/08/08 10:19:02;;;;;;;2.97;1.48;;;21.00;99.90;;;;;;4994211;28;20171;-74
2023/08/08 10:21:28;;;;;;;2.53;1.20;;;21.00;99.90;;;;;;4991376;28;20195;-75
2023/08/08 10:24:12;;;;;;;2.00;1.30;;;21.00;99.90;;;;;;4992731;28;20461;-73
2023/08/08 10:26:57;;;;;;;1.77;1.10;;;21.10;99.90;;;;;;4992781;28;20238;-75
2023/08/08 10:29:26;;;;;;;4.60;1.60;;;21.10;99.90;;;;;;4994399;28;20175;-75
2023/08/08 10:31:54;;;;;;;2.75;1.30;;;21.10;99.90;;;;;;4993986;28;20186;-75
2023/08/08 10:34:37;;;;;;;3.95;1.73;;;21.20;99.90;;;;;;4994988;28;20190;-73
2023/08/08 10:37:08;;;;;;;2.28;1.20;;;21.20;99.90;;;;;;4978248;28;20195;-72
2023/08/08 10:39:34;;;;;;;3.45;1.35;;;21.30;99.90;;;;;;4994124;28;20238;-74
2023/08/08 10:42:04;;;;;;;2.42;1.27;;;21.40;99.90;;;;;;4990929;28;20208;-73
2023/08/08 10:44:30;;;;;;;1.73;1.30;;;21.40;99.90;;;;;;4977648;28;20167;-73
2023/08/08 10:46:56;;;;;;;3.38;1.48;;;21.50;99.90;;;;;;4994037;28;20186;-74
2023/08/08 10:49:22;;;;;;;3.50;1.33;;;21.60;99.90;;;;;;4994818;28;20477;-75
2023/08/08 10:51:49;;;;;;;4.47;1.30;;;21.70;99.90;;;;;;4993957;28;20208;-73
2023/08/08 10:54:32;;;;;;;2.05;1.27;;;21.80;99.90;;;;;;4985819;28;20190;-75
2023/08/08 10:56:59;;;;;;;4.07;1.40;;;22.00;99.90;;;;;;4990504;28;20266;-70
2023/08/08 10:59:26;;;;;;;2.13;1.30;;;22.10;99.90;;;;;;4997439;28;20167;-73
2023/08/08 11:01:52;;;;;;;2.60;1.20;;;22.20;99.90;;;;;;4997405;28;20191;-75
2023/08/08 11:04:23;;;;;;;2.28;1.40;;;22.30;99.90;;;;;;4989972;28;20177;-74
2023/08/08 11:06:55;;;;;;;2.60;1.20;;;22.30;99.90;;;;;;4997240;28;20247;-74
2023/08/08 11:09:23;;;;;;;1.92;1.30;;;22.40;99.90;;;;;;4997184;28;20187;-72
2023/08/08 11:11:49;;;;;;;3.25;1.33;;;22.40;99.90;;;;;;4993910;28;20215;-75
2023/08/08 11:14:22;;;;;;;2.58;1.08;;;22.40;99.90;;;;;;4996223;28;20199;-73
2023/08/08 11:16:50;;;;;;;1.95;1.10;;;22.50;99.90;;;;;;4997422;28;20215;-75
2023/08/08 11:19:19;;;;;;;1.60;1.10;;;22.40;99.90;;;;;;4996262;28;20181;-74
2023/08/08 11:21:46;;;;;;;2.50;1.40;;;22.50;99.90;;;;;;4996564;28;20271;-76
2023/08/08 11:24:12;;;;;;;2.25;1.23;;;22.40;99.90;;;;;;4997197;28;20187;-73
2023/08/08 11:26:39;;;;;;;3.53;1.17;;;22.40;99.90;;;;;;4992407;28;20226;-74
2023/08/08 11:29:06;;;;;;;2.53;1.33;;;22.30;99.90;;;;;;4996844;28;20187;-74
2023/08/08 11:31:33;;;;;;;2.55;1.10;;;22.20;99.90;;;;;;4996791;28;20179;-74
2023/08/08 11:33:59;;;;;;;2.80;1.20;;;22.10;99.90;;;;;;4996303;28;20289;-74
2023/08/08 11:36:28;;;;;;;2.22;1.35;;;22.10;99.90;;;;;;4997043;28;20207;-75
2023/08/08 11:38:54;;;;;;;5.63;1.67;;;22.00;99.90;;;;;;4996718;28;20171;-73
2023/08/08 11:41:23;;;;;;;2.65;1.20;;;22.00;99.90;;;;;;4995202;28;20163;-75
2023/08/08 11:43:52;;;;;;;1.80;1.20;;;21.90;99.90;;;;;;4986422;28;20270;-74
2023/08/08 11:46:22;;;;;;;2.40;1.20;;;21.90;99.90;;;;;;4996711;28;20194;-70
2023/08/08 11:48:48;;;;;;;1.17;1.00;;;21.80;99.90;;;;;;4996151;28;20282;-75
2023/08/08 11:51:15;;;;;;;3.05;1.40;;;21.80;99.90;;;;;;4995833;28;20266;-72
2023/08/08 11:53:53;;;;;;;2.00;0.98;;;21.80;99.90;;;;;;4996253;28;20245;-73
2023/08/08 11:56:20;;;;;;;2.47;1.10;;;21.80;99.90;;;;;;4984501;28;20195;-75
2023/08/08 11:58:48;;;;;;;2.00;1.10;;;21.90;99.90;;;;;;4990620;28;20202;-72
2023/08/08 12:01:14;;;;;;;2.10;1.05;;;21.90;99.90;;;;;;4996083;28;20215;-75
2023/08/08 12:03:40;;;;;;;2.13;1.10;;;21.90;99.90;;;;;;4991926;28;20207;-74
2023/08/08 12:06:16;;;;;;;2.22;1.20;;;21.90;99.90;;;;;;4996008;28;20215;-73
2023/08/08 12:08:46;;;;;;;3.75;1.50;;;21.90;99.90;;;;;;4996601;28;20175;-75
2023/08/08 12:11:13;;;;;;;3.25;1.30;;;21.90;99.90;;;;;;4995861;28;20194;-72
2023/08/08 12:13:43;;;;;;;2.45;1.17;;;21.80;99.90;;;;;;4996201;28;20190;-74
2023/08/08 12:16:11;;;;;;;2.65;1.30;;;21.70;99.90;;;;;;4996132;28;20187;-77
2023/08/08 12:18:38;;;;;;;1.98;1.10;;;21.60;99.90;;;;;;4994709;28;20254;-73
2023/08/08 12:21:05;;;;;;;2.30;1.40;;;21.60;99.90;;;;;;4980725;28;20242;-75
2023/08/08 12:23:31;;;;;;;2.63;1.23;;;21.50;99.90;;;;;;4995651;28;20179;-73
2023/08/08 12:25:59;;;;;;;2.42;1.20;;;21.40;99.90;;;;;;4995140;28;20199;-74
2023/08/08 12:28:27;;;;;;;2.83;1.20;;;21.30;99.90;;;;;;4990981;28;20183;-74
2023/08/08 12:30:55;;;;;;;4.57;1.70;;;21.30;99.90;;;;;;4978938;28;20168;-70
2023/08/08 12:33:26;;;;;;;2.80;1.65;;;21.30;99.90;;;;;;4995401;28;20199;-73
2023/08/08 12:35:56;;;;;;;2.40;1.50;;;21.30;99.90;;;;;;4995680;28;20171;-73
2023/08/08 12:38:24;;;;;;;3.58;1.75;;;21.30;99.90;;;;;;4995734;28;20176;-73
2023/08/08 12:40:50;;;;;;;2.28;1.13;;;21.40;99.90;;;;;;4995188;28;20254;-75
2023/08/08 12:43:18;;;;;;;4.68;1.60;;;21.50;99.90;;;;;;4995545;28;20175;-75
2023/08/08 12:45:47;;;;;;;4.22;1.83;;;21.50;99.90;;;;;;4995312;28;20202;-72
2023/08/08 12:48:18;;;;;;;5.63;2.00;;;21.50;99.90;;;;;;5040060;23;20227;-73
2023/08/08 12:50:48;;;;;;;3.20;1.80;;;21.50;99.90;;;;;;4995498;28;20155;-74